sensor_id;sensor_type;location;lat;lon;timestamp;P1;durP1;ratioP1;P2;durP2;ratioP2
43325;SDS011;28920;59.862;30.636;2023-04-24T00:01:12;22.50;;;10.10;;
43325;SDS011;28920;59.862;30.636;2023-04-24T00:03:40;24.30;;;11.68;;
43325;SDS011;28920;59.862;30.636;2023-04-24T00:06:07;18.95;;;9.35;;
43325;SDS011;28920;59.862;30.636;2023-04-24T00:08:34;19.67;;;10.45;;
43325;SDS011;28920;59.862;30.636;2023-04-24T00:11:03;18.17;;;10.20;;
43325;SDS011;28920;59.862;30.636;2023-04-24T00:13:30;20.23;;;9.73;;
43325;SDS011;28920;59.862;30.636;2023-04-24T00:15:58;18.80;;;8.23;;
43325;SDS011;28920;59.862;30.636;2023-04-24T00:18:25;14.68;;;8.18;;
43325;SDS011;28920;59.862;30.636;2023-04-24T00:20:53;20.98;;;9.30;;
43325;SDS011;28920;59.862;30.636;2023-04-24T00:23:20;17.52;;;8.95;;
43325;SDS011;28920;59.862;30.636;2023-04-24T00:25:47;15.50;;;7.87;;
43325;SDS011;28920;59.862;30.636;2023-04-24T00:28:15;16.23;;;7.87;;
43325;SDS011;28920;59.862;30.636;2023-04-24T00:30:42;14.90;;;7.70;;
43325;SDS011;28920;59.862;30.636;2023-04-24T00:33:10;15.63;;;8.02;;
43325;SDS011;28920;59.862;30.636;2023-04-24T00:35:37;15.18;;;8.32;;
43325;SDS011;28920;59.862;30.636;2023-04-24T00:38:04;16.95;;;7.90;;
43325;SDS011;28920;59.862;30.636;2023-04-24T00:40:32;13.95;;;7.25;;
43325;SDS011;28920;59.862;30.636;2023-04-24T00:42:59;12.45;;;7.18;;
43325;SDS011;28920;59.862;30.636;2023-04-24T00:45:27;14.23;;;6.70;;
43325;SDS011;28920;59.862;30.636;2023-04-24T00:47:56;12.57;;;6.78;;
43325;SDS011;28920;59.862;30.636;2023-04-24T00:50:23;16.73;;;6.65;;
43325;SDS011;28920;59.862;30.636;2023-04-24T00:52:52;14.55;;;7.25;;
43325;SDS011;28920;59.862;30.636;2023-04-24T00:55:20;16.23;;;7.97;;
43325;SDS011;28920;59.862;30.636;2023-04-24T00:57:47;11.35;;;6.70;;
43325;SDS011;28920;59.862;30.636;2023-04-24T01:00:15;14.60;;;7.10;;
43325;SDS011;28920;59.862;30.636;2023-04-24T01:02:43;15.98;;;6.93;;
43325;SDS011;28920;59.862;30.636;2023-04-24T01:05:11;12.70;;;6.75;;
43325;SDS011;28920;59.862;30.636;2023-04-24T01:07:39;14.32;;;6.60;;
43325;SDS011;28920;59.862;30.636;2023-04-24T01:10:10;13.23;;;6.32;;
43325;SDS011;28920;59.862;30.636;2023-04-24T01:12:39;15.35;;;7.50;;
43325;SDS011;28920;59.862;30.636;2023-04-24T01:15:07;13.05;;;6.75;;
43325;SDS011;28920;59.862;30.636;2023-04-24T01:17:35;13.20;;;7.62;;
43325;SDS011;28920;59.862;30.636;2023-04-24T01:20:04;16.65;;;7.62;;
43325;SDS011;28920;59.862;30.636;2023-04-24T01:22:33;14.32;;;7.15;;
43325;SDS011;28920;59.862;30.636;2023-04-24T01:25:02;12.45;;;7.85;;
43325;SDS011;28920;59.862;30.636;2023-04-24T01:27:32;14.07;;;8.23;;
43325;SDS011;28920;59.862;30.636;2023-04-24T01:30:00;15.95;;;7.70;;
43325;SDS011;28920;59.862;30.636;2023-04-24T01:32:32;15.27;;;7.57;;
43325;SDS011;28920;59.862;30.636;2023-04-24T01:35:00;12.48;;;7.05;;
43325;SDS011;28920;59.862;30.636;2023-04-24T01:37:30;11.82;;;7.30;;
43325;SDS011;28920;59.862;30.636;2023-04-24T01:39:59;10.82;;;7.85;;
43325;SDS011;28920;59.862;30.636;2023-04-24T01:42:26;11.65;;;7.65;;
43325;SDS011;28920;59.862;30.636;2023-04-24T01:44:54;12.57;;;6.53;;
43325;SDS011;28920;59.862;30.636;2023-04-24T01:47:21;9.13;;;6.87;;
43325;SDS011;28920;59.862;30.636;2023-04-24T01:49:50;11.95;;;6.35;;
43325;SDS011;28920;59.862;30.636;2023-04-24T01:52:18;12.25;;;6.80;;
43325;SDS011;28920;59.862;30.636;2023-04-24T01:54:47;13.00;;;7.65;;
43325;SDS011;28920;59.862;30.636;2023-04-24T01:57:15;10.00;;;6.22;;
43325;SDS011;28920;59.862;30.636;2023-04-24T01:59:43;10.73;;;7.35;;
43325;SDS011;28920;59.862;30.636;2023-04-24T02:02:11;9.85;;;6.78;;
43325;SDS011;28920;59.862;30.636;2023-04-24T02:04:39;13.80;;;6.60;;
43325;SDS011;28920;59.862;30.636;2023-04-24T02:07:06;13.20;;;6.93;;
43325;SDS011;28920;59.862;30.636;2023-04-24T02:09:34;15.20;;;7.65;;
43325;SDS011;28920;59.862;30.636;2023-04-24T02:12:02;11.48;;;7.00;;
43325;SDS011;28920;59.862;30.636;2023-04-24T02:14:30;10.95;;;7.68;;
43325;SDS011;28920;59.862;30.636;2023-04-24T02:16:58;11.90;;;6.85;;
43325;SDS011;28920;59.862;30.636;2023-04-24T02:19:25;11.82;;;7.22;;
43325;SDS011;28920;59.862;30.636;2023-04-24T02:21:52;11.52;;;6.72;;
43325;SDS011;28920;59.862;30.636;2023-04-24T02:24:19;12.48;;;6.47;;
43325;SDS011;28920;59.862;30.636;2023-04-24T02:26:46;14.13;;;8.20;;
43325;SDS011;28920;59.862;30.636;2023-04-24T02:29:14;15.35;;;7.93;;
43325;SDS011;28920;59.862;30.636;2023-04-24T02:31:42;12.57;;;8.07;;
43325;SDS011;28920;59.862;30.636;2023-04-24T02:34:09;14.18;;;9.98;;
43325;SDS011;28920;59.862;30.636;2023-04-24T02:36:37;14.25;;;8.32;;
43325;SDS011;28920;59.862;30.636;2023-04-24T02:39:04;13.60;;;8.13;;
43325;SDS011;28920;59.862;30.636;2023-04-24T02:41:32;15.48;;;8.85;;
43325;SDS011;28920;59.862;30.636;2023-04-24T02:43:59;18.55;;;8.38;;
43325;SDS011;28920;59.862;30.636;2023-04-24T02:46:26;9.63;;;7.03;;
43325;SDS011;28920;59.862;30.636;2023-04-24T02:48:54;12.85;;;6.35;;
43325;SDS011;28920;59.862;30.636;2023-04-24T02:51:21;9.98;;;6.32;;
43325;SDS011;28920;59.862;30.636;2023-04-24T02:53:49;12.55;;;6.45;;
43325;SDS011;28920;59.862;30.636;2023-04-24T02:56:16;10.65;;;6.75;;
43325;SDS011;28920;59.862;30.636;2023-04-24T02:58:43;16.12;;;6.40;;
43325;SDS011;28920;59.862;30.636;2023-04-24T03:01:11;11.95;;;6.43;;
43325;SDS011;28920;59.862;30.636;2023-04-24T03:03:38;11.23;;;6.20;;
43325;SDS011;28920;59.862;30.636;2023-04-24T03:06:07;9.57;;;6.05;;
43325;SDS011;28920;59.862;30.636;2023-04-24T03:08:34;9.55;;;5.78;;
43325;SDS011;28920;59.862;30.636;2023-04-24T03:11:01;9.23;;;5.20;;
43325;SDS011;28920;59.862;30.636;2023-04-24T03:13:29;9.55;;;5.32;;
43325;SDS011;28920;59.862;30.636;2023-04-24T03:15:56;8.57;;;5.00;;
43325;SDS011;28920;59.862;30.636;2023-04-24T03:18:23;8.15;;;4.80;;
43325;SDS011;28920;59.862;30.636;2023-04-24T03:20:52;9.32;;;4.62;;
43325;SDS011;28920;59.862;30.636;2023-04-24T03:23:20;6.82;;;4.47;;
43325;SDS011;28920;59.862;30.636;2023-04-24T03:25:47;6.68;;;4.45;;
43325;SDS011;28920;59.862;30.636;2023-04-24T03:28:15;11.40;;;4.65;;
43325;SDS011;28920;59.862;30.636;2023-04-24T03:30:43;9.00;;;4.55;;
43325;SDS011;28920;59.862;30.636;2023-04-24T03:33:10;6.75;;;4.30;;
43325;SDS011;28920;59.862;30.636;2023-04-24T03:35:38;18.70;;;5.28;;
43325;SDS011;28920;59.862;30.636;2023-04-24T03:38:06;10.63;;;4.18;;
43325;SDS011;28920;59.862;30.636;2023-04-24T03:40:41;8.13;;;4.22;;
43325;SDS011;28920;59.862;30.636;2023-04-24T03:43:11;8.65;;;4.43;;
43325;SDS011;28920;59.862;30.636;2023-04-24T03:45:38;15.25;;;5.25;;
43325;SDS011;28920;59.862;30.636;2023-04-24T03:48:06;7.22;;;4.20;;
43325;SDS011;28920;59.862;30.636;2023-04-24T03:50:34;13.23;;;4.12;;
43325;SDS011;28920;59.862;30.636;2023-04-24T03:53:01;7.97;;;4.80;;
43325;SDS011;28920;59.862;30.636;2023-04-24T03:55:29;8.65;;;3.85;;
43325;SDS011;28920;59.862;30.636;2023-04-24T03:57:57;11.88;;;4.12;;
43325;SDS011;28920;59.862;30.636;2023-04-24T04:00:24;10.82;;;4.40;;
43325;SDS011;28920;59.862;30.636;2023-04-24T04:02:53;7.47;;;3.83;;
43325;SDS011;28920;59.862;30.636;2023-04-24T04:05:20;8.57;;;4.20;;
43325;SDS011;28920;59.862;30.636;2023-04-24T04:07:47;8.82;;;4.10;;
43325;SDS011;28920;59.862;30.636;2023-04-24T04:10:15;9.10;;;4.32;;
43325;SDS011;28920;59.862;30.636;2023-04-24T04:12:43;5.70;;;3.90;;
43325;SDS011;28920;59.862;30.636;2023-04-24T04:15:11;7.72;;;4.65;;
43325;SDS011;28920;59.862;30.636;2023-04-24T04:17:38;11.10;;;5.18;;
43325;SDS011;28920;59.862;30.636;2023-04-24T04:20:06;10.25;;;4.50;;
43325;SDS011;28920;59.862;30.636;2023-04-24T04:22:36;8.35;;;4.20;;
43325;SDS011;28920;59.862;30.636;2023-04-24T04:25:04;8.48;;;4.43;;
43325;SDS011;28920;59.862;30.636;2023-04-24T04:27:32;8.63;;;4.32;;
43325;SDS011;28920;59.862;30.636;2023-04-24T04:30:00;7.55;;;4.20;;
43325;SDS011;28920;59.862;30.636;2023-04-24T04:32:33;5.18;;;3.85;;
43325;SDS011;28920;59.862;30.636;2023-04-24T04:35:03;7.18;;;4.35;;
43325;SDS011;28920;59.862;30.636;2023-04-24T04:37:31;8.00;;;4.72;;
43325;SDS011;28920;59.862;30.636;2023-04-24T04:40:00;7.65;;;4.03;;
43325;SDS011;28920;59.862;30.636;2023-04-24T04:42:33;6.68;;;3.60;;
43325;SDS011;28920;59.862;30.636;2023-04-24T04:45:00;7.43;;;4.65;;
43325;SDS011;28920;59.862;30.636;2023-04-24T04:47:31;9.98;;;4.35;;
43325;SDS011;28920;59.862;30.636;2023-04-24T04:50:00;9.07;;;4.22;;
43325;SDS011;28920;59.862;30.636;2023-04-24T04:52:30;17.70;;;5.12;;
43325;SDS011;28920;59.862;30.636;2023-04-24T04:54:57;8.77;;;4.70;;
43325;SDS011;28920;59.862;30.636;2023-04-24T04:57:26;9.93;;;4.07;;
43325;SDS011;28920;59.862;30.636;2023-04-24T04:59:53;5.95;;;4.20;;
43325;SDS011;28920;59.862;30.636;2023-04-24T05:02:22;6.28;;;4.07;;
43325;SDS011;28920;59.862;30.636;2023-04-24T05:04:49;9.85;;;4.07;;
43325;SDS011;28920;59.862;30.636;2023-04-24T05:07:18;7.90;;;4.12;;
43325;SDS011;28920;59.862;30.636;2023-04-24T05:09:46;6.47;;;4.30;;
43325;SDS011;28920;59.862;30.636;2023-04-24T05:12:14;7.07;;;3.97;;
43325;SDS011;28920;59.862;30.636;2023-04-24T05:14:42;11.40;;;4.30;;
43325;SDS011;28920;59.862;30.636;2023-04-24T05:17:10;9.43;;;3.87;;
43325;SDS011;28920;59.862;30.636;2023-04-24T05:19:38;10.95;;;4.30;;
43325;SDS011;28920;59.862;30.636;2023-04-24T05:22:07;7.30;;;3.95;;
43325;SDS011;28920;59.862;30.636;2023-04-24T05:24:38;10.85;;;4.90;;
43325;SDS011;28920;59.862;30.636;2023-04-24T05:27:06;6.70;;;4.50;;
43325;SDS011;28920;59.862;30.636;2023-04-24T05:29:33;10.70;;;4.10;;
43325;SDS011;28920;59.862;30.636;2023-04-24T05:32:00;5.28;;;3.60;;
43325;SDS011;28920;59.862;30.636;2023-04-24T05:34:28;7.70;;;4.22;;
43325;SDS011;28920;59.862;30.636;2023-04-24T05:36:56;8.98;;;3.78;;
43325;SDS011;28920;59.862;30.636;2023-04-24T05:39:23;9.50;;;5.82;;
43325;SDS011;28920;59.862;30.636;2023-04-24T05:41:52;9.35;;;3.85;;
43325;SDS011;28920;59.862;30.636;2023-04-24T05:44:19;13.13;;;5.97;;
43325;SDS011;28920;59.862;30.636;2023-04-24T05:46:47;9.90;;;5.07;;
43325;SDS011;28920;59.862;30.636;2023-04-24T05:49:15;10.10;;;4.30;;
43325;SDS011;28920;59.862;30.636;2023-04-24T05:51:43;6.97;;;4.40;;
43325;SDS011;28920;59.862;30.636;2023-04-24T05:54:10;6.82;;;4.78;;
43325;SDS011;28920;59.862;30.636;2023-04-24T05:56:38;10.60;;;4.40;;
43325;SDS011;28920;59.862;30.636;2023-04-24T05:59:07;8.07;;;4.65;;
43325;SDS011;28920;59.862;30.636;2023-04-24T06:01:35;14.15;;;4.90;;
43325;SDS011;28920;59.862;30.636;2023-04-24T06:04:04;11.95;;;4.57;;
43325;SDS011;28920;59.862;30.636;2023-04-24T06:06:32;6.25;;;4.00;;
43325;SDS011;28920;59.862;30.636;2023-04-24T06:09:00;10.20;;;3.95;;
43325;SDS011;28920;59.862;30.636;2023-04-24T06:11:29;9.38;;;4.37;;
43325;SDS011;28920;59.862;30.636;2023-04-24T06:13:56;10.50;;;3.67;;
43325;SDS011;28920;59.862;30.636;2023-04-24T06:16:28;7.75;;;4.07;;
43325;SDS011;28920;59.862;30.636;2023-04-24T06:18:58;13.40;;;3.80;;
43325;SDS011;28920;59.862;30.636;2023-04-24T06:21:25;12.37;;;4.20;;
43325;SDS011;28920;59.862;30.636;2023-04-24T06:23:53;8.73;;;3.70;;
43325;SDS011;28920;59.862;30.636;2023-04-24T06:26:22;6.80;;;3.70;;
43325;SDS011;28920;59.862;30.636;2023-04-24T06:28:51;6.68;;;3.67;;
43325;SDS011;28920;59.862;30.636;2023-04-24T06:31:19;11.43;;;4.00;;
43325;SDS011;28920;59.862;30.636;2023-04-24T06:33:48;5.97;;;3.92;;
43325;SDS011;28920;59.862;30.636;2023-04-24T06:36:15;7.78;;;3.62;;
43325;SDS011;28920;59.862;30.636;2023-04-24T06:38:43;11.80;;;3.90;;
43325;SDS011;28920;59.862;30.636;2023-04-24T06:41:11;12.95;;;4.53;;
43325;SDS011;28920;59.862;30.636;2023-04-24T06:43:39;9.60;;;4.00;;
43325;SDS011;28920;59.862;30.636;2023-04-24T06:46:06;7.35;;;4.15;;
43325;SDS011;28920;59.862;30.636;2023-04-24T06:48:33;12.48;;;4.00;;
43325;SDS011;28920;59.862;30.636;2023-04-24T06:51:01;10.02;;;3.78;;
43325;SDS011;28920;59.862;30.636;2023-04-24T06:53:28;11.18;;;4.00;;
43325;SDS011;28920;59.862;30.636;2023-04-24T06:55:56;12.35;;;3.72;;
43325;SDS011;28920;59.862;30.636;2023-04-24T06:58:24;8.02;;;3.72;;
43325;SDS011;28920;59.862;30.636;2023-04-24T07:00:51;9.30;;;3.25;;
43325;SDS011;28920;59.862;30.636;2023-04-24T07:03:18;7.40;;;3.03;;
43325;SDS011;28920;59.862;30.636;2023-04-24T07:05:45;6.18;;;3.53;;
43325;SDS011;28920;59.862;30.636;2023-04-24T07:08:14;14.43;;;3.58;;
43325;SDS011;28920;59.862;30.636;2023-04-24T07:10:43;8.55;;;3.20;;
43325;SDS011;28920;59.862;30.636;2023-04-24T07:13:11;5.87;;;3.12;;
43325;SDS011;28920;59.862;30.636;2023-04-24T07:15:38;11.45;;;3.85;;
43325;SDS011;28920;59.862;30.636;2023-04-24T07:18:07;7.55;;;3.65;;
43325;SDS011;28920;59.862;30.636;2023-04-24T07:20:34;10.98;;;3.30;;
43325;SDS011;28920;59.862;30.636;2023-04-24T07:23:01;9.80;;;3.70;;
43325;SDS011;28920;59.862;30.636;2023-04-24T07:25:30;8.93;;;3.58;;
43325;SDS011;28920;59.862;30.636;2023-04-24T07:27:57;8.20;;;4.15;;
43325;SDS011;28920;59.862;30.636;2023-04-24T07:30:25;10.43;;;4.03;;
43325;SDS011;28920;59.862;30.636;2023-04-24T07:32:52;5.93;;;3.28;;
43325;SDS011;28920;59.862;30.636;2023-04-24T07:35:19;16.20;;;4.53;;
43325;SDS011;28920;59.862;30.636;2023-04-24T07:37:47;9.90;;;3.37;;
43325;SDS011;28920;59.862;30.636;2023-04-24T07:40:15;11.63;;;3.72;;
43325;SDS011;28920;59.862;30.636;2023-04-24T07:42:43;6.93;;;3.58;;
43325;SDS011;28920;59.862;30.636;2023-04-24T07:45:10;10.20;;;3.40;;
43325;SDS011;28920;59.862;30.636;2023-04-24T07:47:37;12.45;;;3.75;;
43325;SDS011;28920;59.862;30.636;2023-04-24T07:50:05;6.05;;;3.20;;
43325;SDS011;28920;59.862;30.636;2023-04-24T07:52:33;13.43;;;4.07;;
43325;SDS011;28920;59.862;30.636;2023-04-24T07:55:00;6.68;;;3.33;;
43325;SDS011;28920;59.862;30.636;2023-04-24T07:57:32;11.85;;;3.72;;
43325;SDS011;28920;59.862;30.636;2023-04-24T08:00:00;11.07;;;3.20;;
43325;SDS011;28920;59.862;30.636;2023-04-24T08:02:38;6.22;;;3.62;;
43325;SDS011;28920;59.862;30.636;2023-04-24T08:05:05;4.43;;;2.75;;
43325;SDS011;28920;59.862;30.636;2023-04-24T08:07:33;5.95;;;2.97;;
43325;SDS011;28920;59.862;30.636;2023-04-24T08:10:01;13.45;;;3.33;;
43325;SDS011;28920;59.862;30.636;2023-04-24T08:12:29;15.27;;;4.25;;
43325;SDS011;28920;59.862;30.636;2023-04-24T08:14:57;8.32;;;2.60;;
43325;SDS011;28920;59.862;30.636;2023-04-24T08:17:25;15.00;;;2.72;;
43325;SDS011;28920;59.862;30.636;2023-04-24T08:19:52;8.43;;;3.35;;
43325;SDS011;28920;59.862;30.636;2023-04-24T08:22:25;7.95;;;3.22;;
43325;SDS011;28920;59.862;30.636;2023-04-24T08:24:52;6.32;;;2.80;;
43325;SDS011;28920;59.862;30.636;2023-04-24T08:27:20;9.93;;;2.85;;
43325;SDS011;28920;59.862;30.636;2023-04-24T08:29:47;6.45;;;2.30;;
43325;SDS011;28920;59.862;30.636;2023-04-24T08:32:14;6.53;;;2.45;;
43325;SDS011;28920;59.862;30.636;2023-04-24T08:34:42;12.37;;;3.12;;
43325;SDS011;28920;59.862;30.636;2023-04-24T08:37:09;8.27;;;2.60;;
43325;SDS011;28920;59.862;30.636;2023-04-24T08:39:37;10.52;;;2.42;;
43325;SDS011;28920;59.862;30.636;2023-04-24T08:42:04;13.62;;;2.42;;
43325;SDS011;28920;59.862;30.636;2023-04-24T08:44:34;5.97;;;2.50;;
43325;SDS011;28920;59.862;30.636;2023-04-24T08:47:03;4.40;;;2.25;;
43325;SDS011;28920;59.862;30.636;2023-04-24T08:49:31;5.53;;;2.40;;
43325;SDS011;28920;59.862;30.636;2023-04-24T08:52:00;5.87;;;2.50;;
43325;SDS011;28920;59.862;30.636;2023-04-24T08:54:29;8.05;;;2.17;;
43325;SDS011;28920;59.862;30.636;2023-04-24T08:56:57;5.30;;;2.70;;
43325;SDS011;28920;59.862;30.636;2023-04-24T08:59:27;3.22;;;2.15;;
43325;SDS011;28920;59.862;30.636;2023-04-24T09:01:55;6.10;;;3.00;;
43325;SDS011;28920;59.862;30.636;2023-04-24T09:04:23;5.15;;;2.15;;
43325;SDS011;28920;59.862;30.636;2023-04-24T09:06:51;5.47;;;2.33;;
43325;SDS011;28920;59.862;30.636;2023-04-24T09:09:22;5.47;;;2.30;;
43325;SDS011;28920;59.862;30.636;2023-04-24T09:11:50;9.20;;;2.45;;
43325;SDS011;28920;59.862;30.636;2023-04-24T09:14:19;15.98;;;3.00;;
43325;SDS011;28920;59.862;30.636;2023-04-24T09:16:47;7.32;;;2.70;;
43325;SDS011;28920;59.862;30.636;2023-04-24T09:19:15;10.98;;;2.67;;
43325;SDS011;28920;59.862;30.636;2023-04-24T09:21:44;6.68;;;3.03;;
43325;SDS011;28920;59.862;30.636;2023-04-24T09:24:17;8.50;;;3.72;;
43325;SDS011;28920;59.862;30.636;2023-04-24T09:26:47;9.30;;;3.85;;
43325;SDS011;28920;59.862;30.636;2023-04-24T09:29:16;3.70;;;2.10;;
43325;SDS011;28920;59.862;30.636;2023-04-24T09:31:44;7.82;;;2.92;;
43325;SDS011;28920;59.862;30.636;2023-04-24T09:34:12;5.62;;;2.87;;
43325;SDS011;28920;59.862;30.636;2023-04-24T09:36:40;7.28;;;3.00;;
43325;SDS011;28920;59.862;30.636;2023-04-24T09:39:09;4.47;;;3.00;;
43325;SDS011;28920;59.862;30.636;2023-04-24T09:41:43;8.10;;;3.30;;
43325;SDS011;28920;59.862;30.636;2023-04-24T09:44:12;6.65;;;3.33;;
43325;SDS011;28920;59.862;30.636;2023-04-24T09:46:40;4.78;;;2.90;;
43325;SDS011;28920;59.862;30.636;2023-04-24T09:49:08;7.55;;;3.47;;
43325;SDS011;28920;59.862;30.636;2023-04-24T09:54:11;7.18;;;3.33;;
43325;SDS011;28920;59.862;30.636;2023-04-24T09:56:43;12.27;;;3.40;;
43325;SDS011;28920;59.862;30.636;2023-04-24T09:59:12;5.37;;;3.45;;
43325;SDS011;28920;59.862;30.636;2023-04-24T10:01:40;6.57;;;3.10;;
43325;SDS011;28920;59.862;30.636;2023-04-24T10:04:14;8.23;;;3.47;;
43325;SDS011;28920;59.862;30.636;2023-04-24T10:06:43;5.93;;;2.92;;
43325;SDS011;28920;59.862;30.636;2023-04-24T10:09:10;6.65;;;3.17;;
43325;SDS011;28920;59.862;30.636;2023-04-24T10:11:39;8.13;;;3.80;;
43325;SDS011;28920;59.862;30.636;2023-04-24T10:14:09;7.15;;;3.10;;
43325;SDS011;28920;59.862;30.636;2023-04-24T10:16:38;8.52;;;3.60;;
43325;SDS011;28920;59.862;30.636;2023-04-24T10:19:06;7.10;;;3.85;;
43325;SDS011;28920;59.862;30.636;2023-04-24T10:21:34;5.32;;;3.30;;
43325;SDS011;28920;59.862;30.636;2023-04-24T10:24:01;3.60;;;3.10;;
43325;SDS011;28920;59.862;30.636;2023-04-24T10:26:30;6.90;;;3.65;;
43325;SDS011;28920;59.862;30.636;2023-04-24T10:28:58;8.90;;;4.05;;
43325;SDS011;28920;59.862;30.636;2023-04-24T10:31:26;6.37;;;3.28;;
43325;SDS011;28920;59.862;30.636;2023-04-24T10:36:26;5.22;;;3.80;;
43325;SDS011;28920;59.862;30.636;2023-04-24T10:38:55;6.03;;;3.83;;
43325;SDS011;28920;59.862;30.636;2023-04-24T10:41:25;6.67;;;3.30;;
43325;SDS011;28920;59.862;30.636;2023-04-24T10:44:07;3.90;;;2.87;;
43325;SDS011;28920;59.862;30.636;2023-04-24T10:46:36;5.20;;;2.87;;
43325;SDS011;28920;59.862;30.636;2023-04-24T10:49:05;5.65;;;3.70;;
43325;SDS011;28920;59.862;30.636;2023-04-24T10:51:44;9.02;;;3.53;;
43325;SDS011;28920;59.862;30.636;2023-04-24T10:54:26;7.65;;;3.60;;
43325;SDS011;28920;59.862;30.636;2023-04-24T11:00:16;6.43;;;3.25;;
43325;SDS011;28920;59.862;30.636;2023-04-24T11:02:46;4.78;;;3.90;;
43325;SDS011;28920;59.862;30.636;2023-04-24T11:05:17;5.33;;;3.00;;
43325;SDS011;28920;59.862;30.636;2023-04-24T11:08:09;4.95;;;3.30;;
43325;SDS011;28920;59.862;30.636;2023-04-24T11:10:38;9.38;;;3.53;;
43325;SDS011;28920;59.862;30.636;2023-04-24T11:13:06;8.35;;;3.60;;
43325;SDS011;28920;59.862;30.636;2023-04-24T11:15:34;7.28;;;3.53;;
43325;SDS011;28920;59.862;30.636;2023-04-24T11:18:02;8.63;;;3.55;;
43325;SDS011;28920;59.862;30.636;2023-04-24T11:20:30;5.40;;;3.20;;
43325;SDS011;28920;59.862;30.636;2023-04-24T11:23:00;4.72;;;3.42;;
43325;SDS011;28920;59.862;30.636;2023-04-24T11:25:31;7.43;;;3.30;;
43325;SDS011;28920;59.862;30.636;2023-04-24T11:28:02;6.20;;;3.67;;
43325;SDS011;28920;59.862;30.636;2023-04-24T11:30:31;4.55;;;3.33;;
43325;SDS011;28920;59.862;30.636;2023-04-24T11:33:02;6.82;;;3.30;;
43325;SDS011;28920;59.862;30.636;2023-04-24T11:35:30;5.45;;;2.95;;
43325;SDS011;28920;59.862;30.636;2023-04-24T11:38:03;5.57;;;3.17;;
43325;SDS011;28920;59.862;30.636;2023-04-24T11:40:31;5.80;;;3.62;;
43325;SDS011;28920;59.862;30.636;2023-04-24T11:42:59;4.70;;;2.95;;
43325;SDS011;28920;59.862;30.636;2023-04-24T11:45:28;8.13;;;4.78;;
43325;SDS011;28920;59.862;30.636;2023-04-24T11:47:56;8.50;;;4.70;;
43325;SDS011;28920;59.862;30.636;2023-04-24T11:50:25;5.62;;;3.15;;
43325;SDS011;28920;59.862;30.636;2023-04-24T11:52:55;6.05;;;3.50;;
43325;SDS011;28920;59.862;30.636;2023-04-24T11:55:23;6.68;;;3.97;;
43325;SDS011;28920;59.862;30.636;2023-04-24T11:57:53;3.60;;;2.87;;
43325;SDS011;28920;59.862;30.636;2023-04-24T12:00:24;7.50;;;3.50;;
43325;SDS011;28920;59.862;30.636;2023-04-24T12:03:02;6.30;;;2.97;;
43325;SDS011;28920;59.862;30.636;2023-04-24T12:05:31;4.45;;;2.90;;
43325;SDS011;28920;59.862;30.636;2023-04-24T12:07:59;4.45;;;3.03;;
43325;SDS011;28920;59.862;30.636;2023-04-24T12:10:27;5.40;;;2.60;;
43325;SDS011;28920;59.862;30.636;2023-04-24T12:12:56;4.47;;;3.17;;
43325;SDS011;28920;59.862;30.636;2023-04-24T12:15:24;7.93;;;3.47;;
43325;SDS011;28920;59.862;30.636;2023-04-24T12:17:52;7.78;;;3.22;;
43325;SDS011;28920;59.862;30.636;2023-04-24T12:20:23;6.60;;;3.35;;
43325;SDS011;28920;59.862;30.636;2023-04-24T12:22:52;4.55;;;3.17;;
43325;SDS011;28920;59.862;30.636;2023-04-24T12:25:22;4.68;;;2.92;;
43325;SDS011;28920;59.862;30.636;2023-04-24T12:27:54;6.75;;;2.80;;
43325;SDS011;28920;59.862;30.636;2023-04-24T12:30:39;5.97;;;2.60;;
43325;SDS011;28920;59.862;30.636;2023-04-24T12:33:07;3.92;;;2.78;;
43325;SDS011;28920;59.862;30.636;2023-04-24T12:35:34;5.15;;;3.20;;
43325;SDS011;28920;59.862;30.636;2023-04-24T12:38:05;5.93;;;3.40;;
43325;SDS011;28920;59.862;30.636;2023-04-24T12:40:34;4.07;;;3.20;;
43325;SDS011;28920;59.862;30.636;2023-04-24T12:43:02;5.97;;;3.78;;
43325;SDS011;28920;59.862;30.636;2023-04-24T12:45:39;7.30;;;3.70;;
43325;SDS011;28920;59.862;30.636;2023-04-24T12:48:06;6.35;;;2.83;;
43325;SDS011;28920;59.862;30.636;2023-04-24T12:50:33;8.02;;;3.00;;
43325;SDS011;28920;59.862;30.636;2023-04-24T12:53:01;5.47;;;3.30;;
43325;SDS011;28920;59.862;30.636;2023-04-24T12:55:28;5.12;;;3.33;;
43325;SDS011;28920;59.862;30.636;2023-04-24T12:57:56;11.65;;;3.12;;
43325;SDS011;28920;59.862;30.636;2023-04-24T13:00:24;5.75;;;3.30;;
43325;SDS011;28920;59.862;30.636;2023-04-24T13:02:51;7.40;;;3.55;;
43325;SDS011;28920;59.862;30.636;2023-04-24T13:05:18;6.50;;;3.35;;
43325;SDS011;28920;59.862;30.636;2023-04-24T13:07:46;4.87;;;3.30;;
43325;SDS011;28920;59.862;30.636;2023-04-24T13:10:13;4.85;;;3.08;;
43325;SDS011;28920;59.862;30.636;2023-04-24T13:12:40;6.10;;;3.05;;
43325;SDS011;28920;59.862;30.636;2023-04-24T13:15:12;11.35;;;6.00;;
43325;SDS011;28920;59.862;30.636;2023-04-24T13:17:39;13.48;;;5.90;;
43325;SDS011;28920;59.862;30.636;2023-04-24T13:20:07;10.20;;;5.37;;
43325;SDS011;28920;59.862;30.636;2023-04-24T13:22:35;10.85;;;5.25;;
43325;SDS011;28920;59.862;30.636;2023-04-24T13:25:03;11.50;;;4.75;;
43325;SDS011;28920;59.862;30.636;2023-04-24T13:27:32;11.95;;;4.82;;
43325;SDS011;28920;59.862;30.636;2023-04-24T13:30:00;12.35;;;5.05;;
43325;SDS011;28920;59.862;30.636;2023-04-24T13:32:32;10.98;;;5.10;;
43325;SDS011;28920;59.862;30.636;2023-04-24T13:35:01;11.13;;;4.93;;
43325;SDS011;28920;59.862;30.636;2023-04-24T13:37:32;12.23;;;6.82;;
43325;SDS011;28920;59.862;30.636;2023-04-24T13:39:59;24.67;;;8.88;;
43325;SDS011;28920;59.862;30.636;2023-04-24T13:42:29;11.70;;;7.25;;
43325;SDS011;28920;59.862;30.636;2023-04-24T13:44:56;13.45;;;6.72;;
43325;SDS011;28920;59.862;30.636;2023-04-24T13:47:23;13.50;;;6.60;;
43325;SDS011;28920;59.862;30.636;2023-04-24T13:49:51;16.98;;;6.25;;
43325;SDS011;28920;59.862;30.636;2023-04-24T13:52:20;18.30;;;5.07;;
43325;SDS011;28920;59.862;30.636;2023-04-24T13:54:47;10.52;;;5.18;;
43325;SDS011;28920;59.862;30.636;2023-04-24T13:57:14;11.55;;;4.57;;
43325;SDS011;28920;59.862;30.636;2023-04-24T13:59:42;11.32;;;4.93;;
43325;SDS011;28920;59.862;30.636;2023-04-24T14:02:09;9.65;;;5.22;;
43325;SDS011;28920;59.862;30.636;2023-04-24T14:04:37;11.52;;;4.00;;
43325;SDS011;28920;59.862;30.636;2023-04-24T14:07:05;11.73;;;4.53;;
43325;SDS011;28920;59.862;30.636;2023-04-24T14:09:32;7.22;;;4.35;;
43325;SDS011;28920;59.862;30.636;2023-04-24T14:11:59;12.65;;;4.60;;
43325;SDS011;28920;59.862;30.636;2023-04-24T14:14:27;7.90;;;4.12;;
43325;SDS011;28920;59.862;30.636;2023-04-24T14:16:55;10.90;;;4.20;;
43325;SDS011;28920;59.862;30.636;2023-04-24T14:19:23;11.65;;;5.00;;
43325;SDS011;28920;59.862;30.636;2023-04-24T14:21:50;10.45;;;4.60;;
43325;SDS011;28920;59.862;30.636;2023-04-24T14:24:18;8.32;;;4.35;;
43325;SDS011;28920;59.862;30.636;2023-04-24T14:26:45;7.18;;;4.28;;
43325;SDS011;28920;59.862;30.636;2023-04-24T14:29:13;6.68;;;4.50;;
43325;SDS011;28920;59.862;30.636;2023-04-24T14:31:40;8.65;;;5.40;;
43325;SDS011;28920;59.862;30.636;2023-04-24T14:34:07;12.93;;;4.90;;
43325;SDS011;28920;59.862;30.636;2023-04-24T14:36:35;7.68;;;5.30;;
43325;SDS011;28920;59.862;30.636;2023-04-24T14:39:02;14.60;;;6.62;;
43325;SDS011;28920;59.862;30.636;2023-04-24T14:41:33;7.87;;;5.12;;
43325;SDS011;28920;59.862;30.636;2023-04-24T14:44:01;10.68;;;6.07;;